sensor_id;sensor_type;location;lat;lon;timestamp;temperature;humidity
29777;DHT22;16677;52.224;7.484;2023-08-08T00:02:02;14.10;1.00
29777;DHT22;16677;52.224;7.484;2023-08-08T00:04:30;14.10;1.00
29777;DHT22;16677;52.224;7.484;2023-08-08T00:06:57;14.10;1.00
29777;DHT22;16677;52.224;7.484;2023-08-08T00:09:24;14.10;1.00
29777;DHT22;16677;52.224;7.484;2023-08-08T00:11:51;14.10;1.00
29777;DHT22;16677;52.224;7.484;2023-08-08T00:14:18;14.10;1.00
29777;DHT22;16677;52.224;7.484;2023-08-08T00:16:46;14.00;1.00
29777;DHT22;16677;52.224;7.484;2023-08-08T00:19:13;14.10;1.00
29777;DHT22;16677;52.224;7.484;2023-08-08T00:21:40;14.10;1.00
29777;DHT22;16677;52.224;7.484;2023-08-08T00:24:08;14.00;1.00
29777;DHT22;16677;52.224;7.484;2023-08-08T00:26:35;14.00;1.00
29777;DHT22;16677;52.224;7.484;2023-08-08T00:29:02;14.10;1.00
29777;DHT22;16677;52.224;7.484;2023-08-08T00:31:29;14.10;1.00
29777;DHT22;16677;52.224;7.484;2023-08-08T00:33:57;14.20;1.00
29777;DHT22;16677;52.224;7.484;2023-08-08T00:36:24;14.10;1.00
29777;DHT22;16677;52.224;7.484;2023-08-08T00:38:51;14.30;1.00
29777;DHT22;16677;52.224;7.484;2023-08-08T00:41:18;14.20;1.00
29777;DHT22;16677;52.224;7.484;2023-08-08T00:43:46;14.20;99.90
29777;DHT22;16677;52.224;7.484;2023-08-08T00:46:13;14.20;99.90
29777;DHT22;16677;52.224;7.484;2023-08-08T00:48:49;14.30;99.90
29777;DHT22;16677;52.224;7.484;2023-08-08T00:51:18;14.30;99.90
29777;DHT22;16677;52.224;7.484;2023-08-08T00:53:46;14.30;99.90
29777;DHT22;16677;52.224;7.484;2023-08-08T00:56:13;14.40;99.90
29777;DHT22;16677;52.224;7.484;2023-08-08T00:58:41;14.40;1.00
29777;DHT22;16677;52.224;7.484;2023-08-08T01:01:08;14.40;1.00
29777;DHT22;16677;52.224;7.484;2023-08-08T01:03:35;14.40;1.00
29777;DHT22;16677;52.224;7.484;2023-08-08T01:08:51;14.30;99.90
29777;DHT22;16677;52.224;7.484;2023-08-08T01:11:22;14.30;99.90
29777;DHT22;16677;52.224;7.484;2023-08-08T01:13:50;14.30;1.00
29777;DHT22;16677;52.224;7.484;2023-08-08T01:16:19;14.30;1.00
29777;DHT22;16677;52.224;7.484;2023-08-08T01:18:47;14.40;99.90
29777;DHT22;16677;52.224;7.484;2023-08-08T01:21:16;14.40;1.00
29777;DHT22;16677;52.224;7.484;2023-08-08T01:23:53;14.30;1.00
29777;DHT22;16677;52.224;7.484;2023-08-08T01:26:23;14.20;1.00
29777;DHT22;16677;52.224;7.484;2023-08-08T01:28:54;14.20;1.00
29777;DHT22;16677;52.224;7.484;2023-08-08T01:31:21;14.20;1.00
29777;DHT22;16677;52.224;7.484;2023-08-08T01:33:48;14.20;1.00
29777;DHT22;16677;52.224;7.484;2023-08-08T01:36:27;14.20;1.00
29777;DHT22;16677;52.224;7.484;2023-08-08T01:38:58;14.10;99.90
29777;DHT22;16677;52.224;7.484;2023-08-08T01:41:34;14.20;99.90
29777;DHT22;16677;52.224;7.484;2023-08-08T01:44:03;14.10;22.70
29777;DHT22;16677;52.224;7.484;2023-08-08T01:46:32;14.00;99.90
29777;DHT22;16677;52.224;7.484;2023-08-08T01:48:59;14.00;99.90
29777;DHT22;16677;52.224;7.484;2023-08-08T01:51:26;14.00;1.00
29777;DHT22;16677;52.224;7.484;2023-08-08T01:53:54;14.10;1.00
29777;DHT22;16677;52.224;7.484;2023-08-08T01:56:21;14.10;99.90
29777;DHT22;16677;52.224;7.484;2023-08-08T01:58:48;14.00;1.00
29777;DHT22;16677;52.224;7.484;2023-08-08T02:01:15;14.00;1.00
29777;DHT22;16677;52.224;7.484;2023-08-08T02:03:42;14.00;99.90
29777;DHT22;16677;52.224;7.484;2023-08-08T02:06:09;14.00;1.00
29777;DHT22;16677;52.224;7.484;2023-08-08T02:08:36;14.00;1.00
29777;DHT22;16677;52.224;7.484;2023-08-08T02:11:03;14.00;1.00
29777;DHT22;16677;52.224;7.484;2023-08-08T02:13:31;14.00;99.90
29777;DHT22;16677;52.224;7.484;2023-08-08T02:15:58;13.90;99.90
29777;DHT22;16677;52.224;7.484;2023-08-08T02:18:25;14.00;99.90
29777;DHT22;16677;52.224;7.484;2023-08-08T02:20:52;14.00;99.90
29777;DHT22;16677;52.224;7.484;2023-08-08T02:23:19;14.00;99.90
29777;DHT22;16677;52.224;7.484;2023-08-08T02:25:46;14.00;99.90
29777;DHT22;16677;52.224;7.484;2023-08-08T02:28:13;14.00;19.80
29777;DHT22;16677;52.224;7.484;2023-08-08T02:30:40;13.90;96.20
29777;DHT22;16677;52.224;7.484;2023-08-08T02:33:07;13.90;99.90
29777;DHT22;16677;52.224;7.484;2023-08-08T02:35:36;13.90;99.90
29777;DHT22;16677;52.224;7.484;2023-08-08T02:38:03;13.90;99.90
29777;DHT22;16677;52.224;7.484;2023-08-08T02:40:30;13.90;1.00
29777;DHT22;16677;52.224;7.484;2023-08-08T02:42:59;14.00;1.00
29777;DHT22;16677;52.224;7.484;2023-08-08T02:45:26;14.00;1.00
29777;DHT22;16677;52.224;7.484;2023-08-08T02:47:53;14.00;1.00
29777;DHT22;16677;52.224;7.484;2023-08-08T02:50:20;14.00;1.00
29777;DHT22;16677;52.224;7.484;2023-08-08T02:52:47;14.00;1.00
29777;DHT22;16677;52.224;7.484;2023-08-08T02:55:17;14.00;1.00
29777;DHT22;16677;52.224;7.484;2023-08-08T02:57:44;14.00;1.00
29777;DHT22;16677;52.224;7.484;2023-08-08T03:00:11;14.00;31.80
29777;DHT22;16677;52.224;7.484;2023-08-08T03:02:38;14.10;99.90
29777;DHT22;16677;52.224;7.484;2023-08-08T03:05:06;14.20;1.00
29777;DHT22;16677;52.224;7.484;2023-08-08T03:07:33;14.10;36.40
29777;DHT22;16677;52.224;7.484;2023-08-08T03:10:00;14.10;99.90
29777;DHT22;16677;52.224;7.484;2023-08-08T03:12:28;14.10;99.90
29777;DHT22;16677;52.224;7.484;2023-08-08T03:14:58;14.20;99.90
29777;DHT22;16677;52.224;7.484;2023-08-08T03:17:25;14.20;99.90
29777;DHT22;16677;52.224;7.484;2023-08-08T03:19:52;14.20;1.00
29777;DHT22;16677;52.224;7.484;2023-08-08T03:22:19;14.20;1.00
29777;DHT22;16677;52.224;7.484;2023-08-08T03:24:46;14.20;1.00
29777;DHT22;16677;52.224;7.484;2023-08-08T03:27:13;14.20;1.00
29777;DHT22;16677;52.224;7.484;2023-08-08T03:29:40;14.20;1.00
29777;DHT22;16677;52.224;7.484;2023-08-08T03:32:07;14.10;1.00
29777;DHT22;16677;52.224;7.484;2023-08-08T03:34:34;14.10;1.00
29777;DHT22;16677;52.224;7.484;2023-08-08T03:37:01;14.10;1.00
29777;DHT22;16677;52.224;7.484;2023-08-08T03:39:28;13.90;1.00
29777;DHT22;16677;52.224;7.484;2023-08-08T03:41:55;14.10;1.00
29777;DHT22;16677;52.224;7.484;2023-08-08T03:44:23;14.00;1.00
29777;DHT22;16677;52.224;7.484;2023-08-08T03:46:50;14.10;1.00
29777;DHT22;16677;52.224;7.484;2023-08-08T03:49:25;14.20;1.00
29777;DHT22;16677;52.224;7.484;2023-08-08T03:51:52;14.10;1.00
29777;DHT22;16677;52.224;7.484;2023-08-08T03:54:19;14.00;1.00
29777;DHT22;16677;52.224;7.484;2023-08-08T03:56:47;14.00;1.00
29777;DHT22;16677;52.224;7.484;2023-08-08T03:59:14;14.00;1.00
29777;DHT22;16677;52.224;7.484;2023-08-08T04:01:41;14.00;1.00
29777;DHT22;16677;52.224;7.484;2023-08-08T04:04:08;14.00;1.00
29777;DHT22;16677;52.224;7.484;2023-08-08T04:06:36;14.00;1.00
29777;DHT22;16677;52.224;7.484;2023-08-08T04:09:03;14.00;1.00
29777;DHT22;16677;52.224;7.484;2023-08-08T04:11:30;14.00;1.00
29777;DHT22;16677;52.224;7.484;2023-08-08T04:13:58;14.00;1.00
29777;DHT22;16677;52.224;7.484;2023-08-08T04:16:25;14.20;1.00
29777;DHT22;16677;52.224;7.484;2023-08-08T04:18:52;14.00;1.00
29777;DHT22;16677;52.224;7.484;2023-08-08T04:21:20;14.00;1.00
29777;DHT22;16677;52.224;7.484;2023-08-08T04:23:47;14.00;1.00
29777;DHT22;16677;52.224;7.484;2023-08-08T04:26:14;14.00;1.00
29777;DHT22;16677;52.224;7.484;2023-08-08T04:28:41;14.00;1.00
29777;DHT22;16677;52.224;7.484;2023-08-08T04:31:08;14.00;1.00
29777;DHT22;16677;52.224;7.484;2023-08-08T04:33:36;14.00;1.00
29777;DHT22;16677;52.224;7.484;2023-08-08T04:36:03;14.10;1.00
29777;DHT22;16677;52.224;7.484;2023-08-08T04:38:30;14.10;1.00
29777;DHT22;16677;52.224;7.484;2023-08-08T04:40:57;14.10;1.00
29777;DHT22;16677;52.224;7.484;2023-08-08T04:43:25;14.20;1.00
29777;DHT22;16677;52.224;7.484;2023-08-08T04:45:54;14.20;1.00
29777;DHT22;16677;52.224;7.484;2023-08-08T04:48:21;14.20;1.00
29777;DHT22;16677;52.224;7.484;2023-08-08T04:50:48;14.30;1.00
29777;DHT22;16677;52.224;7.484;2023-08-08T04:53:15;14.30;99.90
29777;DHT22;16677;52.224;7.484;2023-08-08T04:55:43;14.20;1.00
29777;DHT22;16677;52.224;7.484;2023-08-08T04:58:10;14.20;1.00
29777;DHT22;16677;52.224;7.484;2023-08-08T05:00:37;14.30;99.90
29777;DHT22;16677;52.224;7.484;2023-08-08T05:03:04;14.20;99.90
29777;DHT22;16677;52.224;7.484;2023-08-08T05:05:32;14.20;99.90
29777;DHT22;16677;52.224;7.484;2023-08-08T05:07:59;14.40;99.90
29777;DHT22;16677;52.224;7.484;2023-08-08T05:10:26;14.30;1.00
29777;DHT22;16677;52.224;7.484;2023-08-08T05:12:53;14.40;24.10
29777;DHT22;16677;52.224;7.484;2023-08-08T05:15:20;14.50;99.90
29777;DHT22;16677;52.224;7.484;2023-08-08T05:17:48;14.60;99.90
29777;DHT22;16677;52.224;7.484;2023-08-08T05:20:15;14.60;1.00
29777;DHT22;16677;52.224;7.484;2023-08-08T05:22:42;14.80;1.00
29777;DHT22;16677;52.224;7.484;2023-08-08T05:25:10;14.70;99.90
29777;DHT22;16677;52.224;7.484;2023-08-08T05:27:37;15.00;1.00
29777;DHT22;16677;52.224;7.484;2023-08-08T05:30:05;15.10;52.80
29777;DHT22;16677;52.224;7.484;2023-08-08T05:32:33;14.90;1.00
29777;DHT22;16677;52.224;7.484;2023-08-08T05:35:00;14.80;31.70
29777;DHT22;16677;52.224;7.484;2023-08-08T05:37:27;14.70;1.00
29777;DHT22;16677;52.224;7.484;2023-08-08T05:39:55;14.70;1.00
29777;DHT22;16677;52.224;7.484;2023-08-08T05:42:22;14.70;1.00
29777;DHT22;16677;52.224;7.484;2023-08-08T05:44:49;14.80;99.90
29777;DHT22;16677;52.224;7.484;2023-08-08T05:47:16;14.80;99.90
29777;DHT22;16677;52.224;7.484;2023-08-08T05:49:43;15.00;1.00
29777;DHT22;16677;52.224;7.484;2023-08-08T05:52:11;15.20;1.00
29777;DHT22;16677;52.224;7.484;2023-08-08T05:54:38;15.50;1.00
29777;DHT22;16677;52.224;7.484;2023-08-08T05:57:05;15.50;98.40
29777;DHT22;16677;52.224;7.484;2023-08-08T05:59:34;15.40;99.90
29777;DHT22;16677;52.224;7.484;2023-08-08T06:02:01;15.10;99.90
29777;DHT22;16677;52.224;7.484;2023-08-08T06:04:29;15.20;99.90
29777;DHT22;16677;52.224;7.484;2023-08-08T06:06:57;15.10;99.90
29777;DHT22;16677;52.224;7.484;2023-08-08T06:09:25;15.00;99.90
29777;DHT22;16677;52.224;7.484;2023-08-08T06:11:52;15.10;88.90
29777;DHT22;16677;52.224;7.484;2023-08-08T06:14:19;15.10;84.50
29777;DHT22;16677;52.224;7.484;2023-08-08T06:16:46;15.40;1.00
29777;DHT22;16677;52.224;7.484;2023-08-08T06:19:14;15.60;1.00
29777;DHT22;16677;52.224;7.484;2023-08-08T06:21:42;15.70;1.00
29777;DHT22;16677;52.224;7.484;2023-08-08T06:24:09;15.70;1.00
29777;DHT22;16677;52.224;7.484;2023-08-08T06:26:37;15.70;1.00
29777;DHT22;16677;52.224;7.484;2023-08-08T06:29:04;15.50;1.00
29777;DHT22;16677;52.224;7.484;2023-08-08T06:31:31;15.40;1.00
29777;DHT22;16677;52.224;7.484;2023-08-08T06:33:58;15.40;1.00
29777;DHT22;16677;52.224;7.484;2023-08-08T06:36:25;15.50;1.00
29777;DHT22;16677;52.224;7.484;2023-08-08T06:38:52;15.50;1.00
29777;DHT22;16677;52.224;7.484;2023-08-08T06:41:19;15.60;1.00
29777;DHT22;16677;52.224;7.484;2023-08-08T06:43:47;15.70;1.00
29777;DHT22;16677;52.224;7.484;2023-08-08T06:46:14;15.70;1.00
29777;DHT22;16677;52.224;7.484;2023-08-08T06:48:42;15.60;1.00
29777;DHT22;16677;52.224;7.484;2023-08-08T06:51:11;15.60;1.00
29777;DHT22;16677;52.224;7.484;2023-08-08T06:53:38;15.50;1.00
29777;DHT22;16677;52.224;7.484;2023-08-08T06:56:06;15.40;1.00
29777;DHT22;16677;52.224;7.484;2023-08-08T06:58:33;15.50;1.00
29777;DHT22;16677;52.224;7.484;2023-08-08T07:01:00;15.60;1.00
29777;DHT22;16677;52.224;7.484;2023-08-08T07:06:03;15.50;1.00
29777;DHT22;16677;52.224;7.484;2023-08-08T07:08:30;15.40;1.00
29777;DHT22;16677;52.224;7.484;2023-08-08T07:10:58;15.40;1.00
29777;DHT22;16677;52.224;7.484;2023-08-08T07:13:25;15.50;1.00
29777;DHT22;16677;52.224;7.484;2023-08-08T07:15:52;15.50;1.00
29777;DHT22;16677;52.224;7.484;2023-08-08T07:18:20;15.60;1.00
29777;DHT22;16677;52.224;7.484;2023-08-08T07:20:47;15.70;1.00
29777;DHT22;16677;52.224;7.484;2023-08-08T07:23:16;15.70;1.00
29777;DHT22;16677;52.224;7.484;2023-08-08T07:25:43;16.10;1.00
29777;DHT22;16677;52.224;7.484;2023-08-08T07:28:12;16.40;1.00
29777;DHT22;16677;52.224;7.484;2023-08-08T07:30:41;16.40;1.00
29777;DHT22;16677;52.224;7.484;2023-08-08T07:33:09;16.90;1.00
29777;DHT22;16677;52.224;7.484;2023-08-08T07:35:36;16.60;99.90
29777;DHT22;16677;52.224;7.484;2023-08-08T07:38:03;16.70;99.90
29777;DHT22;16677;52.224;7.484;2023-08-08T07:40:31;16.80;99.90
29777;DHT22;16677;52.224;7.484;2023-08-08T07:42:58;17.40;99.90
29777;DHT22;16677;52.224;7.484;2023-08-08T07:45:25;16.70;1.00
29777;DHT22;16677;52.224;7.484;2023-08-08T07:47:52;16.80;99.90
29777;DHT22;16677;52.224;7.484;2023-08-08T07:50:20;16.70;99.90
29777;DHT22;16677;52.224;7.484;2023-08-08T07:52:47;16.80;99.90
29777;DHT22;16677;52.224;7.484;2023-08-08T07:55:14;17.00;99.90
29777;DHT22;16677;52.224;7.484;2023-08-08T07:57:41;17.00;99.90
29777;DHT22;16677;52.224;7.484;2023-08-08T08:00:09;16.50;99.90
29777;DHT22;16677;52.224;7.484;2023-08-08T08:02:42;16.70;99.90
29777;DHT22;16677;52.224;7.484;2023-08-08T08:05:10;16.50;99.90
29777;DHT22;16677;52.224;7.484;2023-08-08T08:07:38;16.50;99.90
29777;DHT22;16677;52.224;7.484;2023-08-08T08:10:08;16.70;99.90
29777;DHT22;16677;52.224;7.484;2023-08-08T08:12:37;16.80;99.90
29777;DHT22;16677;52.224;7.484;2023-08-08T08:15:05;16.60;99.90
29777;DHT22;16677;52.224;7.484;2023-08-08T08:17:32;16.50;99.90
29777;DHT22;16677;52.224;7.484;2023-08-08T08:20:00;16.40;99.90
29777;DHT22;16677;52.224;7.484;2023-08-08T08:22:32;16.50;99.90
29777;DHT22;16677;52.224;7.484;2023-08-08T08:24:59;17.10;99.90
29777;DHT22;16677;52.224;7.484;2023-08-08T08:27:27;17.40;99.90
29777;DHT22;16677;52.224;7.484;2023-08-08T08:29:54;17.60;99.90
29777;DHT22;16677;52.224;7.484;2023-08-08T08:32:21;17.30;99.90
29777;DHT22;16677;52.224;7.484;2023-08-08T08:34:48;17.20;99.90
29777;DHT22;16677;52.224;7.484;2023-08-08T08:37:15;16.90;99.90
29777;DHT22;16677;52.224;7.484;2023-08-08T08:39:42;17.40;99.90
29777;DHT22;16677;52.224;7.484;2023-08-08T08:42:13;17.70;99.90
29777;DHT22;16677;52.224;7.484;2023-08-08T08:44:43;17.40;99.90
29777;DHT22;16677;52.224;7.484;2023-08-08T08:47:12;17.30;99.90
29777;DHT22;16677;52.224;7.484;2023-08-08T08:49:42;17.10;99.90
29777;DHT22;16677;52.224;7.484;2023-08-08T08:52:10;17.10;99.90
29777;DHT22;16677;52.224;7.484;2023-08-08T08:54:38;17.50;99.90
29777;DHT22;16677;52.224;7.484;2023-08-08T08:57:05;18.00;99.90
29777;DHT22;16677;52.224;7.484;2023-08-08T08:59:34;17.70;99.90
29777;DHT22;16677;52.224;7.484;2023-08-08T09:02:01;17.80;99.90
29777;DHT22;16677;52.224;7.484;2023-08-08T09:04:30;18.30;99.90
29777;DHT22;16677;52.224;7.484;2023-08-08T09:06:58;17.90;99.90
29777;DHT22;16677;52.224;7.484;2023-08-08T09:09:26;18.20;99.90
29777;DHT22;16677;52.224;7.484;2023-08-08T09:11:53;18.00;99.90
29777;DHT22;16677;52.224;7.484;2023-08-08T09:14:25;18.40;99.90
29777;DHT22;16677;52.224;7.484;2023-08-08T09:16:54;18.70;99.90
29777;DHT22;16677;52.224;7.484;2023-08-08T09:19:22;18.30;99.90
29777;DHT22;16677;52.224;7.484;2023-08-08T09:21:51;17.90;99.90
29777;DHT22;16677;52.224;7.484;2023-08-08T09:24:19;18.20;99.90
29777;DHT22;16677;52.224;7.484;2023-08-08T09:26:46;18.00;99.90
29777;DHT22;16677;52.224;7.484;2023-08-08T09:29:14;18.30;99.90
29777;DHT22;16677;52.224;7.484;2023-08-08T09:31:42;18.60;99.90
29777;DHT22;16677;52.224;7.484;2023-08-08T09:34:09;18.50;99.90
29777;DHT22;16677;52.224;7.484;2023-08-08T09:36:36;18.80;99.90
29777;DHT22;16677;52.224;7.484;2023-08-08T09:39:04;19.20;99.90
29777;DHT22;16677;52.224;7.484;2023-08-08T09:41:32;19.00;99.90
29777;DHT22;16677;52.224;7.484;2023-08-08T09:44:00;18.40;99.90
29777;DHT22;16677;52.224;7.484;2023-08-08T09:46:29;18.00;99.90
29777;DHT22;16677;52.224;7.484;2023-08-08T09:48:57;18.60;99.90
29777;DHT22;16677;52.224;7.484;2023-08-08T09:51:26;18.70;99.90
29777;DHT22;16677;52.224;7.484;2023-08-08T09:53:55;18.70;99.90
29777;DHT22;16677;52.224;7.484;2023-08-08T09:56:26;18.40;99.90
29777;DHT22;16677;52.224;7.484;2023-08-08T09:58:55;17.90;99.90
29777;DHT22;16677;52.224;7.484;2023-08-08T10:01:25;18.10;99.90
29777;DHT22;16677;52.224;7.484;2023-08-08T10:03:53;18.40;99.90
29777;DHT22;16677;52.224;7.484;2023-08-08T10:06:20;18.40;99.90
29777;DHT22;16677;52.224;7.484;2023-08-08T10:08:48;18.60;99.90
29777;DHT22;16677;52.224;7.484;2023-08-08T10:11:17;18.70;99.90
29777;DHT22;16677;52.224;7.484;2023-08-08T10:13:49;18.60;99.90
29777;DHT22;16677;52.224;7.484;2023-08-08T10:16:17;18.80;99.90
29777;DHT22;16677;52.224;7.484;2023-08-08T10:19:02;18.50;99.90
29777;DHT22;16677;52.224;7.484;2023-08-08T10:21:40;18.30;99.90
29777;DHT22;16677;52.224;7.484;2023-08-08T10:24:11;18.50;99.90
29777;DHT22;16677;52.224;7.484;2023-08-08T10:26:57;18.20;99.90
29777;DHT22;16677;52.224;7.484;2023-08-08T10:29:29;18.50;99.90
29777;DHT22;16677;52.224;7.484;2023-08-08T10:32:01;18.50;99.90
29777;DHT22;16677;52.224;7.484;2023-08-08T10:34:44;18.70;99.90
29777;DHT22;16677;52.224;7.484;2023-08-08T10:37:16;18.70;99.90
29777;DHT22;16677;52.224;7.484;2023-08-08T10:39:57;18.30;99.90
29777;DHT22;16677;52.224;7.484;2023-08-08T10:42:27;18.20;99.90
29777;DHT22;16677;52.224;7.484;2023-08-08T10:45:02;18.10;99.90
29777;DHT22;16677;52.224;7.484;2023-08-08T10:47:36;18.00;99.90
29777;DHT22;16677;52.224;7.484;2023-08-08T10:50:12;18.10;99.90
29777;DHT22;16677;52.224;7.484;2023-08-08T10:55:25;18.00;99.90
29777;DHT22;16677;52.224;7.484;2023-08-08T10:58:08;17.60;99.90
29777;DHT22;16677;52.224;7.484;2023-08-08T11:00:38;17.80;99.90
29777;DHT22;16677;52.224;7.484;2023-08-08T11:03:07;17.90;99.90
29777;DHT22;16677;52.224;7.484;2023-08-08T11:05:37;18.10;99.90
29777;DHT22;16677;52.224;7.484;2023-08-08T11:08:06;18.40;99.90
29777;DHT22;16677;52.224;7.484;2023-08-08T11:10:40;18.50;99.90
29777;DHT22;16677;52.224;7.484;2023-08-08T11:13:08;18.40;99.90
29777;DHT22;16677;52.224;7.484;2023-08-08T11:15:36;18.30;99.90
29777;DHT22;16677;52.224;7.484;2023-08-08T11:18:06;18.20;99.90
29777;DHT22;16677;52.224;7.484;2023-08-08T11:20:36;17.90;99.90
29777;DHT22;16677;52.224;7.484;2023-08-08T11:23:04;17.90;99.90
29777;DHT22;16677;52.224;7.484;2023-08-08T11:25:33;17.60;99.90
29777;DHT22;16677;52.224;7.484;2023-08-08T11:28:00;17.70;99.90
29777;DHT22;16677;52.224;7.484;2023-08-08T11:30:32;17.90;99.90
29777;DHT22;16677;52.224;7.484;2023-08-08T11:33:01;17.80;99.90
29777;DHT22;16677;52.224;7.484;2023-08-08T11:35:32;18.20;99.90
29777;DHT22;16677;52.224;7.484;2023-08-08T11:38:01;18.20;99.90
29777;DHT22;16677;52.224;7.484;2023-08-08T11:40:29;18.20;99.90
29777;DHT22;16677;52.224;7.484;2023-08-08T11:42:58;18.30;99.90
29777;DHT22;16677;52.224;7.484;2023-08-08T11:45:25;18.70;99.90
29777;DHT22;16677;52.224;7.484;2023-08-08T11:47:54;18.80;99.90
29777;DHT22;16677;52.224;7.484;2023-08-08T11:50:24;18.20;99.90
29777;DHT22;16677;52.224;7.484;2023-08-08T11:52:53;18.50;99.90
29777;DHT22;16677;52.224;7.484;2023-08-08T11:55:27;18.50;99.90
29777;DHT22;16677;52.224;7.484;2023-08-08T11:57:56;18.40;99.90
29777;DHT22;16677;52.224;7.484;2023-08-08T12:00:27;18.40;99.90
29777;DHT22;16677;52.224;7.484;2023-08-08T12:02:57;18.50;99.90
29777;DHT22;16677;52.224;7.484;2023-08-08T12:05:26;18.20;99.90
29777;DHT22;16677;52.224;7.484;2023-08-08T12:07:54;17.60;99.90
29777;DHT22;16677;52.224;7.484;2023-08-08T12:10:23;16.80;99.90
29777;DHT22;16677;52.224;7.484;2023-08-08T12:12:56;16.80;99.90
29777;DHT22;16677;52.224;7.484;2023-08-08T12:15:31;17.00;99.90
29777;DHT22;16677;52.224;7.484;2023-08-08T12:18:00;17.00;99.90
29777;DHT22;16677;52.224;7.484;2023-08-08T12:20:29;17.30;99.90
29777;DHT22;16677;52.224;7.484;2023-08-08T12:22:58;17.60;99.90
29777;DHT22;16677;52.224;7.484;2023-08-08T12:25:26;17.40;99.90
29777;DHT22;16677;52.224;7.484;2023-08-08T12:27:54;17.60;99.90
29777;DHT22;16677;52.224;7.484;2023-08-08T12:30:21;17.90;99.90
29777;DHT22;16677;52.224;7.484;2023-08-08T12:32:49;17.60;99.90
29777;DHT22;16677;52.224;7.484;2023-08-08T12:35:17;17.70;99.90
29777;DHT22;16677;52.224;7.484;2023-08-08T12:37:44;18.00;99.90
29777;DHT22;16677;52.224;7.484;2023-08-08T12:40:13;18.20;99.90
29777;DHT22;16677;52.224;7.484;2023-08-08T12:42:43;18.30;99.90
29777;DHT22;16677;52.224;7.484;2023-08-08T12:45:11;18.40;99.90
29777;DHT22;16677;52.224;7.484;2023-08-08T12:47:41;19.10;99.90
29777;DHT22;16677;52.224;7.484;2023-08-08T12:50:08;19.60;99.90
29777;DHT22;16677;52.224;7.484;2023-08-08T12:52:39;19.50;99.90
29777;DHT22;16677;52.224;7.484;2023-08-08T12:55:07;19.70;99.90
29777;DHT22;16677;52.224;7.484;2023-08-08T12:57:38;19.80;99.90
29777;DHT22;16677;52.224;7.484;2023-08-08T13:00:09;19.90;99.90
29777;DHT22;16677;52.224;7.484;2023-08-08T13:05:13;20.00;99.90
29777;DHT22;16677;52.224;7.484;2023-08-08T13:07:40;20.10;99.90
29777;DHT22;16677;52.224;7.484;2023-08-08T13:10:08;19.90;99.90
29777;DHT22;16677;52.224;7.484;2023-08-08T13:12:35;19.50;99.90
29777;DHT22;16677;52.224;7.484;2023-08-08T13:15:03;19.20;99.90
29777;DHT22;16677;52.224;7.484;2023-08-08T13:17:34;19.20;99.90
29777;DHT22;16677;52.224;7.484;2023-08-08T13:20:03;19.40;99.90
29777;DHT22;16677;52.224;7.484;2023-08-08T13:22:33;19.50;99.90
29777;DHT22;16677;52.224;7.484;2023-08-08T13:25:00;19.90;99.90
29777;DHT22;16677;52.224;7.484;2023-08-08T13:27:28;20.00;99.90
29777;DHT22;16677;52.224;7.484;2023-08-08T13:29:55;19.70;99.90
29777;DHT22;16677;52.224;7.484;2023-08-08T13:32:22;19.50;99.90
29777;DHT22;16677;52.224;7.484;2023-08-08T13:34:53;19.40;99.90
29777;DHT22;16677;52.224;7.484;2023-08-08T13:37:20;19.70;99.90
29777;DHT22;16677;52.224;7.484;2023-08-08T13:39:47;19.70;99.90
29777;DHT22;16677;52.224;7.484;2023-08-08T13:42:14;19.90;99.90
29777;DHT22;16677;52.224;7.484;2023-08-08T13:44:41;19.70;99.90
29777;DHT22;16677;52.224;7.484;2023-08-08T13:47:09;19.60;99.90
29777;DHT22;16677;52.224;7.484;2023-08-08T13:49:36;19.80;99.90
29777;DHT22;16677;52.224;7.484;2023-08-08T13:52:04;19.80;99.90
29777;DHT22;16677;52.224;7.484;2023-08-08T13:54:31;20.30;99.90
29777;DHT22;16677;52.224;7.484;2023-08-08T13:56:58;20.00;99.90
29777;DHT22;16677;52.224;7.484;2023-08-08T13:59:26;19.90;99.90
29777;DHT22;16677;52.224;7.484;2023-08-08T14:01:53;19.80;99.90
29777;DHT22;16677;52.224;7.484;2023-08-08T14:04:21;19.60;99.90
29777;DHT22;16677;52.224;7.484;2023-08-08T14:06:48;19.60;99.90
29777;DHT22;16677;52.224;7.484;2023-08-08T14:09:15;19.90;99.90
29777;DHT22;16677;52.224;7.484;2023-08-08T14:11:45;19.90;99.90
29777;DHT22;16677;52.224;7.484;2023-08-08T14:14:12;19.80;99.90
29777;DHT22;16677;52.224;7.484;2023-08-08T14:16:39;19.60;99.90
29777;DHT22;16677;52.224;7.484;2023-08-08T14:19:07;19.50;99.90
29777;DHT22;16677;52.224;7.484;2023-08-08T14:21:35;19.10;99.90
29777;DHT22;16677;52.224;7.484;2023-08-08T14:24:02;18.80;99.90
29777;DHT22;16677;52.224;7.484;2023-08-08T14:26:30;18.90;99.90
29777;DHT22;16677;52.224;7.484;2023-08-08T14:28:57;19.10;99.90
29777;DHT22;16677;52.224;7.484;2023-08-08T14:31:25;19.00;99.90
29777;DHT22;16677;52.224;7.484;2023-08-08T14:33:52;19.10;99.90
29777;DHT22;16677;52.224;7.484;2023-08-08T14:36:19;19.30;99.90
29777;DHT22;16677;52.224;7.484;2023-08-08T14:38:47;19.30;99.90
29777;DHT22;16677;52.224;7.484;2023-08-08T14:41:14;19.40;99.90
29777;DHT22;16677;52.224;7.484;2023-08-08T14:43:41;19.50;99.90
29777;DHT22;16677;52.224;7.484;2023-08-08T14:46:08;19.20;99.90
29777;DHT22;16677;52.224;7.484;2023-08-08T14:48:35;19.30;99.90
29777;DHT22;16677;52.224;7.484;2023-08-08T14:51:03;19.50;99.90
29777;DHT22;16677;52.224;7.484;2023-08-08T14:53:30;20.00;99.90
29777;DHT22;16677;52.224;7.484;2023-08-08T14:55:57;19.90;99.90
29777;DHT22;16677;52.224;7.484;2023-08-08T14:58:24;20.10;99.90
29777;DHT22;16677;52.224;7.484;2023-08-08T15:00:52;19.90;99.90
29777;DHT22;16677;52.224;7.484;2023-08-08T15:03:21;19.60;99.90
29777;DHT22;16677;52.224;7.484;2023-08-08T15:05:48;19.20;99.90
29777;DHT22;16677;52.224;7.484;2023-08-08T15:08:16;19.10;99.90
29777;DHT22;16677;52.224;7.484;2023-08-08T15:10:45;19.20;99.90
29777;DHT22;16677;52.224;7.484;2023-08-08T15:13:12;19.40;99.90
29777;DHT22;16677;52.224;7.484;2023-08-08T15:15:39;19.60;99.90
29777;DHT22;16677;52.224;7.484;2023-08-08T15:18:06;20.00;99.90
29777;DHT22;16677;52.224;7.484;2023-08-08T15:20:34;20.00;99.90
29777;DHT22;16677;52.224;7.484;2023-08-08T15:23:03;19.80;99.90
29777;DHT22;16677;52.224;7.484;2023-08-08T15:25:30;19.50;99.90
29777;DHT22;16677;52.224;7.484;2023-08-08T15:27:57;19.20;99.90
29777;DHT22;16677;52.224;7.484;2023-08-08T15:30:25;18.90;99.90
29777;DHT22;16677;52.224;7.484;2023-08-08T15:32:52;18.80;99.90
29777;DHT22;16677;52.224;7.484;2023-08-08T15:35:19;18.40;99.90
29777;DHT22;16677;52.224;7.484;2023-08-08T15:37:46;16.90;99.90
29777;DHT22;16677;52.224;7.484;2023-08-08T15:40:14;15.90;1.00
29777;DHT22;16677;52.224;7.484;2023-08-08T15:42:41;15.70;1.00
29777;DHT22;16677;52.224;7.484;2023-08-08T15:45:10;15.70;1.00
29777;DHT22;16677;52.224;7.484;2023-08-08T15:47:38;16.30;99.90
29777;DHT22;16677;52.224;7.484;2023-08-08T15:50:07;16.50;1.00
29777;DHT22;16677;52.224;7.484;2023-08-08T15:52:35;16.50;99.90